Detall de PIREP

Printer-friendly versionPDF version

[2015/07/26 06:25:00]
Flight IATA:CT2101
Pilot Number:041
Company ICAO:CAT
Aircraft Type:F28/A
PAX:53
Departing Airport: LEAS
Destination Airport: LEVC
Alternate Airport:LEBL
Online: VATSIM
Route:XONDA R107 ZMR UL155 NVS UM871 ABOSI
Flight Level:FL300
No Slew and time accel
No pause
Crash detect
Detect pilot in Cockpit between each 30 and 45 minutes
06:25 Zero fuel Weight: 57507 Lbs, Fuel Weight: 15994 Lbs
06:25 VATSIM:LEAS 260600Z 26003KT 200V330 CAVOK 16/13 Q1015 NOSIG
06:25 VATSIM:LEVC 260600Z 00000KT 9999 RA BKN018 24/22 Q1016 NOSIG
06:25 VOICE CATALONIAN
06:31 Parking Brakes off
06:35 Take-off
06:35 Take off Weight: 73106 Lbs
06:35 Wind: 265º @ 002 Knots Heading: 287º
06:35 POS N43º 33´ 55´´ W006º 02´ 31´´
06:36 Gear Up: 153 Knots
06:36 Flaps:2 at 153 Knots
06:36 Flaps:1 at 170 Knots
06:36 Flaps:0 at 185 Knots
06:51 Wind:287º@040 Knots Heading: 178º Ground Speed: 379 Knots Altitude 21102 ft
07:01 TOC
07:01 Fuel Weight: 12743 Lb
07:06 Wind:339º@033 Knots Heading: 130º Ground Speed: 438 Knots Altitude 30157 ft
07:19 TOD
07:19 Fuel Weight: 11491 Lb
07:21 Wind:275º@029 Knots Heading: 107º Ground Speed: 389 Knots Altitude 27709 ft
07:36 Wind:269º@018 Knots Heading: 112º Ground Speed: 290 Knots Altitude 8113 ft
07:43 Flaps:1 at 261 Knots
07:43 Flaps:2 at 244 Knots
07:43 Flaps:3 at 224 Knots
07:44 Flaps:4 at 208 Knots
07:44 Gear Down: 197 Knots
07:44 Flaps:5 at 181 Knots
07:45 TouchDown:Rate -198 ft/min Speed: 112 Knots
07:45 Flaps:0 at 53 Knots
07:45 VATSIM:LEVC 260730Z VRB02KT 9999 SCT022 27/24 Q1016 NOSIG
07:45 Land
07:45 Wind:310º@002 Knots
07:45 Heading: 116º
07:45 Flight Duration: 01:09
07:45 Landing Weight: 68058 Lbs
07:45 POS N39º 29´ 34´´ W000º 29´ 29´´
07:48 Parking brakes on
07:48 Block to Block Duration: 01:17
07:48 Final Fuel: 10427 Lbls
07:48 Spent Fuel: 5566 Lbls
07:48 Flight Length: 407 NM
07:48 TOD Land Length: 131 NM

Exportar CSV

Powered by Drupal - Modified by Danger4k